Time;durP1;ratioP1;P1;durP2;ratioP2;P2;SDS_P1;SDS_P2;PMS_P1;PMS_P2;Temp;Humidity;BMP_temperature;BMP_pressure;BME280_temperature;BME280_humidity;BME280_pressure;Samples;Min_cycle;Max_cycle;Signal;HPM_P1;HPM_P2
2022/03/15 00:00:53;;;;;;;3.42;3.00;;;8.80;99.90;;;;;;6059011;23;20194;-77
2022/03/15 00:03:21;;;;;;;3.13;2.80;;;8.80;99.90;;;;;;6058296;23;20296;-77
2022/03/15 00:05:49;;;;;;;3.97;2.90;;;8.80;99.90;;;;;;6051892;23;20295;-77
2022/03/15 00:08:17;;;;;;;4.82;3.47;;;8.80;99.90;;;;;;6059290;23;20635;-77
2022/03/15 00:10:47;;;;;;;4.30;2.85;;;8.80;99.90;;;;;;6045926;23;20320;-76
2022/03/15 00:13:14;;;;;;;3.40;2.88;;;8.70;99.90;;;;;;6053062;23;20233;-77
2022/03/15 00:15:42;;;;;;;3.50;2.95;;;8.70;99.90;;;;;;6045569;23;20191;-77
2022/03/15 00:18:09;;;;;;;5.22;3.55;;;8.60;99.90;;;;;;6047336;23;20670;-77
2022/03/15 00:20:37;;;;;;;3.78;3.38;;;8.50;99.90;;;;;;6042073;23;20217;-77
2022/03/15 00:23:05;;;;;;;6.10;3.75;;;8.50;99.90;;;;;;6057425;23;20202;-76
2022/03/15 00:25:32;;;;;;;4.03;3.50;;;8.40;99.90;;;;;;6054666;23;20196;-77
2022/03/15 00:27:59;;;;;;;4.18;3.80;;;8.30;99.90;;;;;;6055830;23;20227;-77
2022/03/15 00:30:26;;;;;;;3.58;3.25;;;8.30;99.90;;;;;;6050991;23;20283;-77
2022/03/15 00:32:54;;;;;;;5.43;3.50;;;8.10;99.90;;;;;;6055037;23;20225;-77
2022/03/15 00:35:24;;;;;;;3.50;3.20;;;8.10;99.90;;;;;;6044567;23;20191;-77
2022/03/15 00:37:53;;;;;;;5.00;3.60;;;8.10;99.90;;;;;;6055270;23;20891;-77
2022/03/15 00:40:23;;;;;;;3.85;3.45;;;8.10;99.90;;;;;;6046942;23;20230;-77
2022/03/15 00:42:51;;;;;;;5.43;3.55;;;8.10;99.90;;;;;;6051184;23;20245;-77
2022/03/15 00:45:19;;;;;;;4.80;4.00;;;8.00;99.90;;;;;;6046815;23;20190;-77
2022/03/15 00:47:47;;;;;;;4.90;3.42;;;8.00;99.90;;;;;;6045091;23;20294;-77
2022/03/15 00:50:14;;;;;;;4.85;3.08;;;8.00;99.90;;;;;;6054872;23;20272;-77
2022/03/15 00:52:41;;;;;;;5.80;3.65;;;8.00;99.90;;;;;;6057595;23;20200;-77
2022/03/15 00:55:09;;;;;;;3.45;2.90;;;8.10;99.90;;;;;;6052051;23;20191;-77
2022/03/15 00:57:37;;;;;;;3.33;3.03;;;8.10;99.90;;;;;;6051589;23;20218;-77
2022/03/15 01:00:06;;;;;;;4.07;3.20;;;8.10;99.90;;;;;;6051105;23;20578;-77
2022/03/15 01:02:33;;;;;;;5.15;2.95;;;8.10;99.90;;;;;;6044354;23;20242;-77
2022/03/15 01:05:00;;;;;;;6.00;3.78;;;8.10;99.90;;;;;;6056938;23;20599;-77
2022/03/15 01:07:27;;;;;;;4.15;3.50;;;8.20;99.90;;;;;;6058734;23;20191;-77
2022/03/15 01:09:54;;;;;;;3.97;3.03;;;8.20;99.90;;;;;;6044871;23;20259;-77
2022/03/15 01:12:21;;;;;;;3.50;3.20;;;8.30;99.90;;;;;;6039112;23;20714;-77
2022/03/15 01:14:49;;;;;;;4.82;3.35;;;8.30;99.90;;;;;;6056879;23;20601;-77
2022/03/15 01:17:16;;;;;;;4.63;3.70;;;8.30;99.90;;;;;;6052161;23;20269;-77
2022/03/15 01:19:43;;;;;;;4.10;3.13;;;8.40;99.90;;;;;;6054419;23;20297;-77
2022/03/15 01:22:10;;;;;;;4.30;3.03;;;8.40;99.90;;;;;;6044521;23;20196;-77
2022/03/15 01:24:37;;;;;;;3.33;2.70;;;8.40;99.90;;;;;;6046165;23;20321;-77
2022/03/15 01:27:04;;;;;;;6.28;2.80;;;8.40;99.90;;;;;;6050050;23;20222;-77
2022/03/15 01:29:31;;;;;;;3.60;3.30;;;8.40;99.90;;;;;;6046507;23;20293;-77
2022/03/15 01:32:00;;;;;;;4.53;3.10;;;8.40;99.90;;;;;;6055197;23;21171;-77
2022/03/15 01:34:28;;;;;;;4.15;2.75;;;8.40;99.90;;;;;;6048550;23;20230;-77
2022/03/15 01:36:55;;;;;;;3.45;3.15;;;8.40;99.90;;;;;;6046142;23;20297;-77
2022/03/15 01:39:22;;;;;;;5.80;3.40;;;8.40;99.90;;;;;;6050152;23;20218;-77
2022/03/15 01:41:48;;;;;;;5.65;3.03;;;8.30;99.90;;;;;;6059579;23;20212;-77
2022/03/15 01:44:17;;;;;;;4.15;3.33;;;8.30;99.90;;;;;;6054111;23;20723;-79
2022/03/15 01:46:45;;;;;;;4.78;3.42;;;8.20;99.90;;;;;;6043026;23;20196;-77
2022/03/15 01:49:14;;;;;;;4.60;3.33;;;8.10;99.90;;;;;;6057779;23;20213;-77
2022/03/15 01:51:43;;;;;;;7.45;3.78;;;8.10;99.90;;;;;;6051379;23;20190;-77
2022/03/15 01:54:10;;;;;;;6.90;3.00;;;8.00;99.90;;;;;;6051494;23;20191;-77
2022/03/15 01:56:41;;;;;;;3.63;2.95;;;8.00;99.90;;;;;;6040205;23;20187;-77
2022/03/15 01:59:09;;;;;;;6.03;3.85;;;7.90;99.90;;;;;;6045513;23;20236;-77
2022/03/15 02:01:36;;;;;;;4.20;3.33;;;7.90;99.90;;;;;;6053154;23;20209;-77
2022/03/15 02:04:03;;;;;;;4.10;3.53;;;7.90;99.90;;;;;;6060223;23;20218;-77
2022/03/15 02:06:31;;;;;;;4.82;3.60;;;7.90;99.90;;;;;;6047913;23;20285;-77
2022/03/15 02:08:58;;;;;;;4.20;3.80;;;7.90;99.90;;;;;;6048759;23;20214;-77
2022/03/15 02:11:26;;;;;;;6.80;4.55;;;7.80;99.90;;;;;;6045338;23;20195;-77
2022/03/15 02:13:53;;;;;;;4.45;3.92;;;7.80;99.90;;;;;;6051418;23;20196;-77
2022/03/15 02:16:20;;;;;;;5.78;4.10;;;7.80;99.90;;;;;;6052799;23;20281;-77
2022/03/15 02:18:48;;;;;;;6.30;4.22;;;7.80;99.90;;;;;;6057841;23;20213;-77
2022/03/15 02:21:16;;;;;;;5.18;3.60;;;7.80;99.90;;;;;;6045310;23;20236;-77
2022/03/15 02:23:43;;;;;;;5.70;4.40;;;7.80;99.90;;;;;;6056285;23;20711;-77
2022/03/15 02:26:10;;;;;;;4.10;3.70;;;7.90;99.90;;;;;;6051395;23;20197;-77
2022/03/15 02:28:37;;;;;;;4.90;4.00;;;7.90;99.90;;;;;;6057577;23;20256;-77
2022/03/15 02:31:04;;;;;;;3.72;3.40;;;8.00;99.90;;;;;;6055987;23;20198;-77
2022/03/15 02:33:31;;;;;;;6.90;4.20;;;8.00;99.90;;;;;;6047674;23;20537;-77
2022/03/15 02:35:59;;;;;;;4.80;3.75;;;8.10;99.90;;;;;;6050650;23;20277;-77
2022/03/15 02:38:27;;;;;;;4.38;3.65;;;8.10;99.90;;;;;;6050033;23;20305;-77
2022/03/15 02:40:54;;;;;;;4.90;3.90;;;8.10;99.90;;;;;;6048265;23;20213;-77
2022/03/15 02:43:21;;;;;;;4.50;4.10;;;8.20;99.90;;;;;;6059557;23;20241;-77
2022/03/15 02:45:48;;;;;;;5.20;3.90;;;8.20;99.90;;;;;;6043234;23;20206;-77
2022/03/15 02:48:15;;;;;;;4.63;3.67;;;8.10;99.90;;;;;;6056920;23;20565;-77
2022/03/15 02:50:42;;;;;;;6.32;4.63;;;8.00;99.90;;;;;;6048426;23;20196;-77
2022/03/15 02:53:09;;;;;;;4.95;4.43;;;8.00;99.90;;;;;;6047220;23;20190;-77
2022/03/15 02:55:37;;;;;;;3.97;3.55;;;8.00;99.90;;;;;;6057224;23;20199;-77
2022/03/15 02:58:04;;;;;;;3.83;3.53;;;8.00;99.90;;;;;;6049050;23;20230;-77
2022/03/15 03:00:31;;;;;;;4.15;3.40;;;8.10;99.90;;;;;;6043491;23;20217;-77
2022/03/15 03:02:58;;;;;;;3.95;3.55;;;8.10;99.90;;;;;;6043708;23;20186;-77
2022/03/15 03:05:24;;;;;;;4.40;3.70;;;8.10;99.90;;;;;;6059112;23;20190;-77
2022/03/15 03:07:52;;;;;;;4.55;3.70;;;8.10;99.90;;;;;;6058443;23;20221;-76
2022/03/15 03:10:20;;;;;;;4.47;3.90;;;8.20;99.90;;;;;;6058116;23;20321;-77
2022/03/15 03:12:49;;;;;;;3.70;3.40;;;8.20;99.90;;;;;;6041086;23;20253;-77
2022/03/15 03:15:20;;;;;;;4.32;4.00;;;8.20;99.90;;;;;;6053167;23;20241;-77
2022/03/15 03:17:47;;;;;;;3.90;3.55;;;8.20;99.90;;;;;;6046678;23;20217;-76
2022/03/15 03:20:17;;;;;;;4.55;4.15;;;8.20;99.90;;;;;;6055510;23;20229;-77
2022/03/15 03:22:45;;;;;;;5.30;4.28;;;8.20;99.90;;;;;;6048780;23;20709;-77
2022/03/15 03:25:12;;;;;;;4.60;4.20;;;8.20;99.90;;;;;;6053860;23;20221;-77
2022/03/15 03:27:39;;;;;;;5.95;3.85;;;8.10;99.90;;;;;;6046151;23;20229;-77
2022/03/15 03:30:09;;;;;;;5.68;4.25;;;8.10;99.90;;;;;;6050319;23;20562;-77
2022/03/15 03:32:36;;;;;;;4.40;4.00;;;8.10;99.90;;;;;;6045124;23;20252;-77
2022/03/15 03:35:04;;;;;;;6.55;4.13;;;8.10;99.90;;;;;;6059612;23;20189;-77
2022/03/15 03:37:32;;;;;;;7.72;4.35;;;8.10;99.90;;;;;;6053371;23;20211;-77
2022/03/15 03:39:59;;;;;;;4.28;3.85;;;8.10;99.90;;;;;;6045255;23;20219;-77
2022/03/15 03:42:26;;;;;;;7.38;4.20;;;8.00;99.90;;;;;;6040044;23;20197;-77
2022/03/15 03:44:53;;;;;;;5.45;4.30;;;8.00;99.90;;;;;;6048516;23;20193;-77
2022/03/15 03:47:21;;;;;;;5.03;4.22;;;7.90;99.90;;;;;;6051153;23;20218;-77
2022/03/15 03:49:49;;;;;;;5.30;4.85;;;7.90;99.90;;;;;;6046091;23;20267;-77
2022/03/15 03:52:17;;;;;;;5.03;4.53;;;7.80;99.90;;;;;;6052878;23;20206;-77
2022/03/15 03:54:43;;;;;;;4.70;4.30;;;7.80;99.90;;;;;;6046460;23;20198;-77
2022/03/15 03:57:10;;;;;;;4.82;3.90;;;7.80;99.90;;;;;;6048784;23;20232;-77
2022/03/15 03:59:37;;;;;;;4.80;4.20;;;7.80;99.90;;;;;;6058813;23;20189;-78
2022/03/15 04:02:04;;;;;;;4.93;4.20;;;7.80;99.90;;;;;;6056426;23;20250;-77
2022/03/15 04:04:33;;;;;;;5.05;4.28;;;7.80;99.90;;;;;;6056121;23;20227;-77
2022/03/15 04:07:08;;;;;;;4.50;4.10;;;7.80;99.90;;;;;;6055636;23;20284;-77
2022/03/15 04:09:35;;;;;;;4.53;4.00;;;7.80;99.90;;;;;;6051300;23;20187;-78
2022/03/15 04:12:06;;;;;;;5.07;4.40;;;7.70;99.90;;;;;;6056534;23;20217;-77
2022/03/15 04:14:35;;;;;;;5.75;4.55;;;7.70;99.90;;;;;;6056775;23;20197;-78
2022/03/15 04:17:03;;;;;;;6.38;4.40;;;7.70;99.90;;;;;;6051699;23;20210;-76
2022/03/15 04:19:30;;;;;;;4.60;4.20;;;7.60;99.90;;;;;;6054924;23;20200;-77
2022/03/15 04:21:58;;;;;;;5.50;5.00;;;7.60;99.90;;;;;;6054110;23;20295;-77
2022/03/15 04:24:25;;;;;;;6.32;4.88;;;7.50;99.90;;;;;;6043102;23;20318;-74
2022/03/15 04:26:52;;;;;;;7.75;5.78;;;7.50;99.90;;;;;;6050259;23;20716;-75
2022/03/15 04:29:20;;;;;;;5.47;4.97;;;7.40;99.90;;;;;;6038306;23;20640;-75
2022/03/15 04:31:47;;;;;;;6.70;5.20;;;7.30;99.90;;;;;;6050766;23;20275;-75
2022/03/15 04:34:14;;;;;;;6.07;5.32;;;7.20;99.90;;;;;;6058757;23;20292;-75
2022/03/15 04:36:42;;;;;;;6.43;5.40;;;7.20;99.90;;;;;;6040777;23;20217;-75
2022/03/15 04:39:10;;;;;;;5.57;5.03;;;7.10;99.90;;;;;;6052248;23;20197;-75
2022/03/15 04:41:37;;;;;;;5.65;5.15;;;7.20;99.90;;;;;;6055255;23;20568;-76
2022/03/15 04:44:05;;;;;;;6.13;5.30;;;7.20;99.90;;;;;;6056160;23;20789;-76
2022/03/15 04:46:33;;;;;;;6.55;5.93;;;7.20;99.90;;;;;;6055216;23;20275;-76
2022/03/15 04:49:00;;;;;;;6.63;5.70;;;7.20;99.90;;;;;;6055777;23;20288;-78
2022/03/15 04:51:28;;;;;;;6.90;6.30;;;7.20;99.90;;;;;;6047530;23;20225;-79
2022/03/15 04:53:55;;;;;;;6.68;6.07;;;7.20;99.90;;;;;;6054175;23;20707;-79
2022/03/15 04:56:23;;;;;;;6.95;6.28;;;7.20;99.90;;;;;;6043053;23;20189;-79
2022/03/15 04:58:50;;;;;;;6.82;6.07;;;7.10;99.90;;;;;;6056052;23;20220;-79
2022/03/15 05:01:17;;;;;;;10.85;6.80;;;7.10;99.90;;;;;;6041147;23;20220;-78
2022/03/15 05:03:44;;;;;;;6.80;6.10;;;7.00;99.90;;;;;;6045508;23;20513;-79
2022/03/15 05:06:11;;;;;;;7.13;5.70;;;7.00;99.90;;;;;;6046475;23;20276;-78
2022/03/15 05:08:39;;;;;;;6.80;6.20;;;7.00;99.90;;;;;;6043007;23;20209;-78
2022/03/15 05:11:08;;;;;;;6.28;5.68;;;6.90;99.90;;;;;;6044804;23;20285;-79
2022/03/15 05:13:38;;;;;;;7.13;6.45;;;6.90;99.90;;;;;;6037958;23;20681;-79
2022/03/15 05:16:06;;;;;;;6.30;5.70;;;6.80;99.90;;;;;;6038378;23;20185;-79
2022/03/15 05:18:34;;;;;;;7.90;6.05;;;6.80;99.90;;;;;;6056179;23;20541;-79
2022/03/15 05:21:01;;;;;;;6.82;6.00;;;6.70;99.90;;;;;;6051162;23;20224;-79
2022/03/15 05:23:29;;;;;;;7.25;6.43;;;6.70;99.90;;;;;;6040054;23;20252;-78
2022/03/15 05:25:56;;;;;;;7.28;6.20;;;6.70;99.90;;;;;;6056146;23;20279;-79
2022/03/15 05:28:23;;;;;;;7.40;6.32;;;6.60;99.90;;;;;;6053344;23;20224;-79
2022/03/15 05:30:51;;;;;;;6.55;5.80;;;6.60;99.90;;;;;;6047535;23;20228;-79
2022/03/15 05:33:18;;;;;;;6.20;5.70;;;6.50;99.90;;;;;;6049229;23;20196;-79
2022/03/15 05:35:45;;;;;;;8.40;6.30;;;6.50;99.90;;;;;;6050307;23;20189;-78
2022/03/15 05:38:12;;;;;;;8.07;6.45;;;6.50;99.90;;;;;;6046581;23;20213;-79
2022/03/15 05:40:39;;;;;;;7.88;6.47;;;6.50;99.90;;;;;;6046703;23;20564;-81
2022/03/15 05:43:06;;;;;;;7.45;6.38;;;6.50;99.90;;;;;;6049130;23;20273;-78
2022/03/15 05:45:34;;;;;;;7.50;6.35;;;6.50;99.90;;;;;;6052629;23;20203;-78
2022/03/15 05:48:03;;;;;;;6.72;6.07;;;6.50;99.90;;;;;;6050090;23;20314;-80
2022/03/15 05:50:31;;;;;;;7.20;6.13;;;6.50;99.90;;;;;;6055973;23;20232;-79
2022/03/15 05:53:03;;;;;;;6.25;5.65;;;6.50;99.90;;;;;;6051204;23;20199;-78
2022/03/15 05:55:30;;;;;;;7.97;5.70;;;6.50;99.90;;;;;;6048685;23;20927;-80
2022/03/15 05:57:57;;;;;;;8.82;5.53;;;6.50;99.90;;;;;;6055040;23;20237;-79
2022/03/15 06:00:24;;;;;;;6.18;4.93;;;6.50;99.90;;;;;;6044545;23;20197;-80
2022/03/15 06:02:51;;;;;;;6.47;5.43;;;6.40;99.90;;;;;;6050816;23;20189;-77
2022/03/15 06:05:20;;;;;;;7.45;6.72;;;6.40;99.90;;;;;;6051306;23;20751;-78
2022/03/15 06:07:48;;;;;;;7.82;5.30;;;6.30;99.90;;;;;;6053167;23;20209;-77
2022/03/15 06:10:17;;;;;;;6.03;5.40;;;6.30;99.90;;;;;;6047641;23;20197;-76
2022/03/15 06:12:45;;;;;;;6.82;5.53;;;6.40;99.90;;;;;;6044875;23;20664;-78
2022/03/15 06:15:13;;;;;;;7.93;5.75;;;6.40;99.90;;;;;;6050996;23;20181;-77
2022/03/15 06:17:47;;;;;;;8.57;5.80;;;6.40;99.90;;;;;;6052215;23;20209;-80
2022/03/15 06:20:16;;;;;;;8.48;6.15;;;6.40;99.90;;;;;;6057335;23;20181;-81
2022/03/15 06:22:45;;;;;;;7.65;6.10;;;6.50;99.90;;;;;;6050519;23;20284;-80
2022/03/15 06:25:13;;;;;;;7.18;6.38;;;6.50;99.90;;;;;;6051662;23;20640;-79
2022/03/15 06:27:40;;;;;;;7.85;6.55;;;6.50;99.90;;;;;;6054208;23;20260;-80
2022/03/15 06:30:09;;;;;;;7.47;6.70;;;6.50;99.90;;;;;;6038280;23;20196;-81
2022/03/15 06:32:36;;;;;;;7.68;6.25;;;6.60;99.90;;;;;;6033935;23;20189;-81
2022/03/15 06:35:07;;;;;;;9.18;7.40;;;6.60;99.90;;;;;;6044293;23;20196;-81
2022/03/15 06:37:39;;;;;;;9.65;7.82;;;6.70;99.90;;;;;;6041544;23;20205;-81
2022/03/15 06:40:09;;;;;;;7.28;6.05;;;6.70;99.90;;;;;;6049462;23;20604;-81
2022/03/15 06:42:38;;;;;;;10.27;6.18;;;6.80;99.90;;;;;;6058684;23;20641;-81
2022/03/15 06:45:06;;;;;;;8.48;6.55;;;6.80;99.90;;;;;;6051630;23;20678;-81
2022/03/15 06:47:34;;;;;;;9.27;7.03;;;6.80;99.90;;;;;;6047811;23;20259;-81
2022/03/15 06:50:01;;;;;;;8.30;6.57;;;6.90;99.90;;;;;;6063270;23;20191;-81
2022/03/15 06:52:28;;;;;;;7.95;6.43;;;6.90;99.90;;;;;;6047016;23;20205;-80
2022/03/15 06:54:55;;;;;;;6.93;6.10;;;7.00;99.90;;;;;;6057578;23;20191;-81
2022/03/15 06:57:23;;;;;;;8.20;6.65;;;7.00;99.90;;;;;;6046726;23;20204;-82
2022/03/15 06:59:50;;;;;;;7.40;6.55;;;7.10;99.90;;;;;;6053830;23;21385;-82
2022/03/15 07:02:17;;;;;;;8.32;6.55;;;7.10;99.90;;;;;;6048205;23;20280;-77
2022/03/15 07:04:44;;;;;;;8.02;6.88;;;7.10;99.90;;;;;;6058724;23;20189;-68
2022/03/15 07:07:11;;;;;;;8.35;6.30;;;7.10;99.90;;;;;;6055083;23;20200;-69
2022/03/15 07:09:38;;;;;;;8.65;6.50;;;7.20;99.90;;;;;;6058447;23;20228;-89
2022/03/15 07:12:06;;;;;;;9.23;7.35;;;7.20;99.90;;;;;;6058727;23;20605;-87
2022/03/15 07:14:34;;;;;;;12.00;7.70;;;7.20;99.90;;;;;;6063470;23;20589;-88
2022/03/15 07:17:04;;;;;;;9.38;7.28;;;7.20;99.90;;;;;;6059041;23;20854;-86
2022/03/15 07:19:33;;;;;;;10.98;7.72;;;7.20;99.90;;;;;;6059798;23;20184;-88
2022/03/15 07:22:01;;;;;;;7.70;6.90;;;7.20;99.90;;;;;;6059906;23;20240;-88
2022/03/15 07:24:29;;;;;;;7.97;7.20;;;7.10;99.90;;;;;;6060883;23;20873;-89
2022/03/15 07:26:55;;;;;;;12.73;9.13;;;7.10;99.90;;;;;;6060260;23;20217;-88
2022/03/15 07:29:24;;;;;;;9.18;7.18;;;7.10;99.90;;;;;;6056328;23;20181;-89
2022/03/15 07:31:52;;;;;;;8.57;6.65;;;7.00;99.90;;;;;;6060797;23;20216;-87
2022/03/15 07:34:25;;;;;;;8.10;7.20;;;6.90;99.90;;;;;;6057776;23;20271;-88
2022/03/15 07:36:52;;;;;;;10.00;7.10;;;6.90;99.90;;;;;;6061254;23;20213;-88
2022/03/15 07:39:20;;;;;;;10.63;6.72;;;6.90;99.90;;;;;;6054917;23;20635;-87
2022/03/15 07:41:47;;;;;;;8.18;6.75;;;6.90;99.90;;;;;;6061727;23;20618;-86
2022/03/15 07:44:14;;;;;;;8.20;6.15;;;6.90;99.90;;;;;;6061079;23;20205;-88
2022/03/15 07:46:48;;;;;;;9.38;6.63;;;6.90;99.90;;;;;;6061134;23;20232;-87
2022/03/15 07:49:17;;;;;;;8.65;7.18;;;6.90;99.90;;;;;;6058901;23;20189;-89
2022/03/15 07:51:44;;;;;;;7.03;5.45;;;7.00;99.90;;;;;;6063735;23;20195;-89
2022/03/15 07:54:12;;;;;;;7.20;6.15;;;7.00;99.90;;;;;;6062580;23;20271;-86
2022/03/15 07:56:43;;;;;;;7.50;6.68;;;7.00;99.90;;;;;;6062882;23;20210;-87
2022/03/15 07:59:10;;;;;;;7.90;6.53;;;7.10;99.90;;;;;;6061958;23;20216;-87
2022/03/15 08:01:37;;;;;;;6.57;5.95;;;7.10;99.90;;;;;;6059688;23;20276;-89
2022/03/15 08:04:04;;;;;;;9.50;6.25;;;7.20;99.90;;;;;;6059662;23;20201;-88
2022/03/15 08:06:32;;;;;;;7.63;5.80;;;7.30;99.90;;;;;;6062192;23;20207;-88
2022/03/15 08:08:59;;;;;;;7.22;5.70;;;7.40;99.90;;;;;;6060047;23;20216;-88
2022/03/15 08:11:27;;;;;;;9.20;7.10;;;7.50;99.90;;;;;;6061022;23;20264;-87
2022/03/15 08:13:55;;;;;;;9.30;6.50;;;7.60;99.90;;;;;;6060752;23;20266;-86
2022/03/15 08:16:23;;;;;;;7.30;5.75;;;7.70;99.90;;;;;;6059975;23;20233;-88
2022/03/15 08:18:51;;;;;;;6.53;5.93;;;7.80;99.90;;;;;;6057862;23;20265;-86
2022/03/15 08:21:19;;;;;;;7.90;6.63;;;7.90;99.90;;;;;;6059864;23;20186;-87
2022/03/15 08:23:47;;;;;;;6.10;5.50;;;8.00;99.90;;;;;;6055127;23;20195;-88
2022/03/15 08:26:15;;;;;;;6.82;5.60;;;8.10;99.90;;;;;;6067119;23;20293;-87
2022/03/15 08:28:43;;;;;;;9.27;6.57;;;8.20;99.90;;;;;;6057662;23;20231;-87
2022/03/15 08:31:11;;;;;;;9.90;6.40;;;8.30;99.90;;;;;;6057950;23;20272;-88
2022/03/15 08:33:39;;;;;;;9.60;5.95;;;8.50;99.90;;;;;;6065390;23;20231;-90
2022/03/15 08:36:07;;;;;;;7.18;5.30;;;8.60;99.90;;;;;;6053839;23;20185;-87
2022/03/15 08:38:34;;;;;;;7.68;5.50;;;8.70;99.90;;;;;;6064310;23;20180;-88
2022/03/15 08:41:06;;;;;;;7.93;5.60;;;8.70;99.90;;;;;;6055556;23;20190;-88
2022/03/15 08:43:34;;;;;;;7.97;5.82;;;8.80;99.90;;;;;;6047538;23;20284;-88
2022/03/15 08:46:01;;;;;;;6.97;5.95;;;9.00;99.90;;;;;;6052414;23;20634;-87
2022/03/15 08:48:28;;;;;;;7.43;5.82;;;9.10;99.90;;;;;;6056558;23;20219;-87
2022/03/15 08:50:55;;;;;;;7.13;5.95;;;9.30;99.90;;;;;;6060616;23;20219;-88
2022/03/15 08:53:22;;;;;;;7.72;5.78;;;9.40;99.90;;;;;;6055224;23;20222;-88
2022/03/15 08:55:49;;;;;;;6.03;5.53;;;9.60;99.90;;;;;;6053334;23;20191;-87
2022/03/15 08:58:17;;;;;;;8.45;5.82;;;9.70;99.90;;;;;;6056576;23;20199;-88
2022/03/15 09:00:45;;;;;;;9.23;6.15;;;9.90;99.90;;;;;;6063025;23;20636;-89
2022/03/15 09:03:11;;;;;;;7.47;5.63;;;9.90;99.90;;;;;;6058080;23;20227;-89
2022/03/15 09:05:39;;;;;;;6.72;4.82;;;10.10;99.90;;;;;;6054824;23;20185;-86
2022/03/15 09:08:06;;;;;;;5.53;5.03;;;10.20;99.90;;;;;;6055267;23;20624;-86
2022/03/15 09:10:34;;;;;;;6.97;5.28;;;10.30;99.90;;;;;;6049754;23;20184;-86
2022/03/15 09:13:03;;;;;;;7.50;5.70;;;10.50;99.90;;;;;;6053994;23;20215;-86
2022/03/15 09:15:32;;;;;;;7.43;5.72;;;10.60;99.90;;;;;;6056257;23;20266;-87
2022/03/15 09:17:59;;;;;;;8.30;5.55;;;10.70;99.90;;;;;;6054816;23;20207;-87
2022/03/15 09:20:26;;;;;;;6.32;5.70;;;10.70;99.90;;;;;;6045915;23;20180;-88
2022/03/15 09:22:53;;;;;;;7.97;6.00;;;10.90;99.90;;;;;;6057807;23;20546;-89
2022/03/15 09:25:21;;;;;;;7.50;6.38;;;11.00;99.90;;;;;;6057239;23;20223;-86
2022/03/15 09:27:49;;;;;;;9.48;5.82;;;11.10;99.90;;;;;;6057631;23;20822;-87
2022/03/15 09:30:22;;;;;;;7.45;5.60;;;11.20;99.90;;;;;;6055409;23;20534;-85
2022/03/15 09:32:50;;;;;;;6.00;5.40;;;11.30;99.90;;;;;;6051716;23;20255;-85
2022/03/15 09:35:18;;;;;;;7.82;5.45;;;11.40;99.90;;;;;;6056769;23;20189;-87
2022/03/15 09:37:48;;;;;;;9.05;5.45;;;11.40;99.90;;;;;;6067785;23;20262;-84
2022/03/15 09:40:18;;;;;;;7.25;5.90;;;11.40;99.90;;;;;;6052959;23;20199;-87
2022/03/15 09:42:50;;;;;;;7.45;5.85;;;11.40;99.90;;;;;;6060504;23;20248;-86
2022/03/15 09:45:22;;;;;;;8.90;5.97;;;11.40;99.90;;;;;;6056113;23;20648;-87
2022/03/15 09:47:56;;;;;;;6.20;5.50;;;11.30;99.90;;;;;;6054548;23;20287;-87
2022/03/15 09:50:24;;;;;;;7.45;5.60;;;11.30;99.90;;;;;;6046449;23;20599;-88
2022/03/15 09:52:53;;;;;;;6.40;5.68;;;11.30;99.90;;;;;;6048199;23;20224;-88
2022/03/15 09:55:20;;;;;;;5.70;5.10;;;11.40;99.90;;;;;;6053832;23;20653;-87
2022/03/15 09:57:48;;;;;;;6.65;5.57;;;11.40;99.90;;;;;;6052697;23;20239;-87
2022/03/15 10:00:17;;;;;;;9.68;5.70;;;11.40;99.90;;;;;;6058643;23;20497;-88
2022/03/15 10:02:44;;;;;;;7.88;5.63;;;11.50;99.90;;;;;;6056930;23;20210;-88
2022/03/15 10:05:14;;;;;;;6.72;5.63;;;11.40;99.90;;;;;;6050560;23;20536;-87
2022/03/15 10:07:42;;;;;;;5.72;4.68;;;11.30;99.90;;;;;;6055689;23;20215;-85
2022/03/15 10:10:11;;;;;;;5.60;4.68;;;11.30;99.90;;;;;;6059253;23;20181;-88
2022/03/15 10:12:38;;;;;;;5.38;3.60;;;11.30;99.90;;;;;;6054816;23;20196;-87
2022/03/15 10:15:14;;;;;;;5.93;4.50;;;11.30;99.90;;;;;;6062094;23;20185;-87
2022/03/15 10:17:49;;;;;;;7.82;4.05;;;11.40;99.90;;;;;;6058608;23;20244;-88
2022/03/15 10:20:19;;;;;;;6.18;3.60;;;11.50;99.90;;;;;;6057526;23;20184;-85
2022/03/15 10:22:55;;;;;;;4.72;3.95;;;11.60;99.90;;;;;;6051603;23;20221;-88
2022/03/15 10:25:23;;;;;;;5.35;4.85;;;11.70;99.90;;;;;;6048358;23;20636;-88
2022/03/15 10:27:54;;;;;;;9.95;6.05;;;11.70;99.90;;;;;;6059192;23;20694;-88
2022/03/15 10:30:21;;;;;;;6.10;5.38;;;11.70;99.90;;;;;;6062228;23;20193;-87
2022/03/15 10:32:50;;;;;;;5.40;4.90;;;11.70;99.90;;;;;;6057207;23;20603;-85
2022/03/15 10:35:20;;;;;;;5.57;4.95;;;11.70;99.90;;;;;;6044661;23;20197;-85
2022/03/15 10:37:48;;;;;;;7.65;4.88;;;11.70;99.90;;;;;;6046297;23;20185;-87
2022/03/15 10:40:16;;;;;;;5.97;4.65;;;11.70;99.90;;;;;;6059174;23;20192;-88
2022/03/15 10:42:53;;;;;;;6.00;4.40;;;11.70;99.90;;;;;;6055022;23;20296;-87
2022/03/15 10:45:24;;;;;;;8.02;5.00;;;11.70;99.90;;;;;;6055158;23;20184;-86
2022/03/15 10:47:53;;;;;;;6.38;5.20;;;11.70;99.90;;;;;;6052606;23;20189;-88
2022/03/15 10:50:23;;;;;;;10.07;5.60;;;11.70;99.90;;;;;;6061296;23;20192;-86
2022/03/15 10:52:53;;;;;;;6.28;4.90;;;11.70;99.90;;;;;;6053381;23;20971;-86
2022/03/15 10:55:24;;;;;;;6.95;5.45;;;11.60;99.90;;;;;;6055611;23;20248;-88
2022/03/15 10:57:53;;;;;;;8.13;5.90;;;11.70;99.90;;;;;;6050854;23;20181;-87
2022/03/15 11:00:22;;;;;;;6.47;5.80;;;11.70;99.90;;;;;;6062021;23;20224;-88
2022/03/15 11:02:56;;;;;;;6.57;5.97;;;11.70;99.90;;;;;;6061007;23;20223;-89
2022/03/15 11:05:31;;;;;;;10.43;5.88;;;11.60;99.90;;;;;;6053450;23;20185;-89
2022/03/15 11:08:03;;;;;;;6.43;5.32;;;11.60;99.90;;;;;;6059059;23;20290;-88
2022/03/15 11:10:31;;;;;;;6.82;5.20;;;11.50;99.90;;;;;;6061890;23;21322;-88
2022/03/15 11:13:02;;;;;;;6.65;5.93;;;11.40;99.90;;;;;;6062991;23;20195;-87
2022/03/15 11:15:31;;;;;;;6.43;5.38;;;11.30;99.90;;;;;;6055516;23;20201;-86
2022/03/15 11:18:00;;;;;;;6.30;5.75;;;11.20;99.90;;;;;;6057329;23;20185;-88
2022/03/15 11:20:34;;;;;;;7.38;5.78;;;11.10;99.90;;;;;;6068781;23;20778;-88
2022/03/15 11:23:03;;;;;;;8.15;6.07;;;11.00;99.90;;;;;;6060404;23;20559;-88
2022/03/15 11:25:34;;;;;;;8.57;6.43;;;10.80;99.90;;;;;;6056430;23;20233;-89
2022/03/15 11:28:06;;;;;;;7.15;6.00;;;10.70;99.90;;;;;;6053905;23;20193;-91
2022/03/15 11:30:34;;;;;;;6.60;6.00;;;10.60;99.90;;;;;;6058982;23;20191;-87
2022/03/15 11:33:03;;;;;;;9.60;6.78;;;10.50;99.90;;;;;;6052550;23;20272;-88
2022/03/15 11:35:34;;;;;;;10.55;6.80;;;10.30;99.90;;;;;;6061004;23;20204;-88
2022/03/15 11:38:09;;;;;;;7.35;6.20;;;10.20;99.90;;;;;;6061570;23;20548;-89
2022/03/15 11:40:36;;;;;;;5.90;5.30;;;10.10;99.90;;;;;;6054918;23;20656;-88
2022/03/15 11:43:15;;;;;;;6.20;5.60;;;10.00;99.90;;;;;;6059449;23;20231;-89
2022/03/15 11:45:46;;;;;;;7.47;6.22;;;9.90;99.90;;;;;;6067512;23;20283;-87
2022/03/15 11:48:21;;;;;;;6.78;6.07;;;9.80;99.90;;;;;;6062318;23;20230;-88
2022/03/15 11:50:59;;;;;;;6.78;6.07;;;9.70;99.90;;;;;;6062334;23;20190;-87
2022/03/15 11:53:42;;;;;;;8.68;6.60;;;9.70;99.90;;;;;;6058343;23;20198;-88
2022/03/15 11:56:22;;;;;;;7.15;6.40;;;9.60;99.90;;;;;;6062996;23;20207;-88
2022/03/15 11:58:53;;;;;;;7.47;6.53;;;9.60;99.90;;;;;;6067384;23;20215;-89
2022/03/15 12:01:22;;;;;;;9.57;7.13;;;9.60;99.90;;;;;;6060488;23;20639;-88
2022/03/15 12:03:53;;;;;;;8.02;6.70;;;9.70;99.90;;;;;;6058338;23;20628;-86
2022/03/15 12:06:30;;;;;;;8.55;7.68;;;9.80;99.90;;;;;;6057952;23;20239;-88
2022/03/15 12:08:59;;;;;;;9.32;6.90;;;9.90;99.90;;;;;;6061387;23;20274;-89
2022/03/15 12:11:32;;;;;;;8.32;6.38;;;10.00;99.90;;;;;;6060528;23;20188;-89
2022/03/15 12:14:04;;;;;;;8.60;7.40;;;10.10;99.90;;;;;;6061700;23;20200;-89
2022/03/15 12:16:37;;;;;;;7.65;6.95;;;10.20;99.90;;;;;;6051362;23;20207;-88
2022/03/15 12:19:14;;;;;;;7.72;6.50;;;10.30;99.90;;;;;;6059690;23;20251;-88
2022/03/15 12:21:51;;;;;;;9.25;7.10;;;10.20;99.90;;;;;;6054869;23;20193;-87
2022/03/15 12:24:19;;;;;;;8.65;6.82;;;10.10;99.90;;;;;;6052975;23;20214;-86
2022/03/15 12:26:58;;;;;;;7.72;7.00;;;10.10;99.90;;;;;;6054902;23;20219;-87
2022/03/15 12:29:27;;;;;;;7.90;7.10;;;10.10;99.90;;;;;;6055262;23;20239;-89
2022/03/15 12:31:54;;;;;;;8.20;7.45;;;10.00;99.90;;;;;;6058564;23;20596;-88
2022/03/15 12:34:21;;;;;;;9.30;7.45;;;10.00;99.90;;;;;;6055156;23;20555;-87
2022/03/15 12:36:58;;;;;;;13.77;7.75;;;10.00;99.90;;;;;;6059526;23;20294;-86
2022/03/15 12:39:28;;;;;;;8.05;7.22;;;10.00;99.90;;;;;;6065660;23;20188;-86
2022/03/15 12:42:07;;;;;;;9.00;7.63;;;10.00;99.90;;;;;;6073722;23;20218;-88
2022/03/15 12:44:44;;;;;;;9.98;7.78;;;10.00;99.90;;;;;;6070449;23;20292;-86
2022/03/15 12:47:12;;;;;;;9.70;8.00;;;10.00;99.90;;;;;;6061159;23;20194;-88
2022/03/15 12:49:39;;;;;;;8.48;6.90;;;9.90;99.90;;;;;;6061591;23;20188;-88
2022/03/15 12:52:15;;;;;;;7.57;6.88;;;9.90;99.90;;;;;;6058200;23;20189;-88
2022/03/15 12:54:45;;;;;;;7.93;6.93;;;9.90;99.90;;;;;;6051324;23;20224;-87
2022/03/15 12:57:14;;;;;;;7.47;6.80;;;10.00;99.90;;;;;;6050216;23;20196;-84
2022/03/15 12:59:50;;;;;;;6.40;5.80;;;9.90;99.90;;;;;;6054835;23;20201;-84